Time;durP1;ratioP1;P1;durP2;ratioP2;P2;SDS_P1;SDS_P2;PMS_P1;PMS_P2;Temp;Humidity;BMP_temperature;BMP_pressure;BME280_temperature;BME280_humidity;BME280_pressure;Samples;Min_cycle;Max_cycle;Signal;HPM_P1;HPM_P2
2021/12/17 08:08:33;;;;;;;116.68;58.38;;;6.20;99.90;;;;;;5036043;28;20413;-58
2021/12/17 08:10:59;;;;;;;115.20;59.58;;;7.30;99.90;;;;;;5046370;28;20087;-50
2021/12/17 08:13:31;;;;;;;98.75;52.45;;;8.50;99.90;;;;;;5044636;28;20044;-57
2021/12/17 08:32:02;;;;;;;84.00;49.15;;;7.90;99.90;;;;;;5026251;28;20092;-57
2021/12/17 08:34:28;;;;;;;68.25;42.85;;;7.80;99.90;;;;;;5025528;28;20060;-55
2021/12/17 08:36:54;;;;;;;109.50;55.90;;;7.80;99.90;;;;;;5024525;28;20065;-55
2021/12/17 08:39:21;;;;;;;112.57;59.33;;;7.80;99.90;;;;;;5023497;28;20708;-53
2021/12/17 08:41:51;;;;;;;72.20;44.63;;;7.70;99.90;;;;;;5022105;28;20451;-56
2021/12/17 08:44:17;;;;;;;58.03;35.58;;;7.70;99.90;;;;;;5025213;28;20048;-54
2021/12/17 08:46:43;;;;;;;51.58;33.33;;;7.70;99.90;;;;;;5026001;28;20745;-68
2021/12/17 08:49:09;;;;;;;54.28;33.97;;;7.70;99.90;;;;;;5024852;28;20025;-51
2021/12/17 08:51:36;;;;;;;59.50;31.98;;;7.80;99.90;;;;;;5022181;28;20057;-57
2021/12/17 08:54:02;;;;;;;57.83;30.42;;;7.80;99.90;;;;;;5016163;28;20084;-55
2021/12/17 08:56:30;;;;;;;52.88;29.77;;;7.90;99.90;;;;;;5004784;28;20053;-56
2021/12/17 08:58:56;;;;;;;49.95;29.00;;;7.90;99.90;;;;;;5007795;28;20081;-54
2021/12/17 09:01:22;;;;;;;69.90;35.65;;;8.00;99.90;;;;;;5009069;28;20030;-56
2021/12/17 09:03:47;;;;;;;47.00;26.73;;;7.90;99.90;;;;;;5007940;28;20054;-52
2021/12/17 09:06:17;;;;;;;41.08;27.83;;;7.90;99.90;;;;;;5018668;28;20433;-56
2021/12/17 09:08:56;;;;;;;34.95;22.27;;;7.90;99.90;;;;;;5021846;28;20509;-59
2021/12/17 09:11:27;;;;;;;32.08;20.88;;;7.90;99.90;;;;;;5023716;28;20406;-55
2021/12/17 09:13:56;;;;;;;36.67;23.63;;;8.00;99.90;;;;;;5027303;28;20100;-55
2021/12/17 09:16:42;;;;;;;33.25;22.17;;;8.00;99.90;;;;;;5026192;28;20022;-53
2021/12/17 09:19:10;;;;;;;28.92;21.73;;;8.10;99.90;;;;;;4998733;28;20029;-56
2021/12/17 09:21:35;;;;;;;26.13;18.67;;;8.10;99.90;;;;;;5010535;28;20022;-57
2021/12/17 09:24:02;;;;;;;25.50;17.88;;;8.10;99.90;;;;;;5011791;28;20552;-53
2021/12/17 09:26:27;;;;;;;22.80;17.33;;;8.20;99.90;;;;;;5013053;28;20084;-57
2021/12/17 09:28:54;;;;;;;28.92;19.25;;;8.20;99.90;;;;;;5011877;28;20391;-57
2021/12/17 09:31:19;;;;;;;28.17;19.85;;;8.20;99.90;;;;;;5012392;28;20475;-54
2021/12/17 09:33:49;;;;;;;27.75;19.27;;;8.20;99.90;;;;;;5012015;28;20090;-55
2021/12/17 09:36:16;;;;;;;27.15;19.98;;;8.30;99.90;;;;;;5012754;28;20116;-58
2021/12/17 09:38:41;;;;;;;26.30;19.45;;;8.30;99.90;;;;;;5013220;28;20061;-57
2021/12/17 09:41:08;;;;;;;27.85;19.25;;;8.50;99.90;;;;;;5012552;28;20554;-56
2021/12/17 09:43:36;;;;;;;24.95;18.02;;;8.60;99.90;;;;;;5013285;28;20029;-57
2021/12/17 09:46:05;;;;;;;28.40;20.52;;;8.60;99.90;;;;;;5012855;28;20121;-59
2021/12/17 09:48:33;;;;;;;27.55;19.02;;;8.70;99.90;;;;;;5006461;28;20457;-62
2021/12/17 09:50:59;;;;;;;29.45;21.65;;;8.80;99.90;;;;;;5010178;28;20017;-60
2021/12/17 09:53:25;;;;;;;31.70;20.80;;;8.90;99.90;;;;;;5013808;28;20061;-55
2021/12/17 09:55:51;;;;;;;35.35;22.60;;;8.90;99.90;;;;;;5012259;28;20371;-58
2021/12/17 09:58:17;;;;;;;30.20;21.08;;;8.90;99.90;;;;;;5010518;28;20129;-55
2021/12/17 10:00:43;;;;;;;35.65;24.52;;;8.80;99.90;;;;;;5012505;28;20396;-58
2021/12/17 10:03:09;;;;;;;32.95;22.77;;;8.70;99.90;;;;;;5010862;28;20030;-52
2021/12/17 10:05:38;;;;;;;25.55;18.67;;;8.70;99.90;;;;;;5010297;28;20507;-52
2021/12/17 10:08:09;;;;;;;31.50;22.13;;;8.60;99.90;;;;;;5010876;28;20046;-57
2021/12/17 10:10:45;;;;;;;28.08;19.02;;;8.60;99.90;;;;;;5011796;28;20584;-54
2021/12/17 10:13:16;;;;;;;29.65;20.27;;;8.60;99.90;;;;;;5012299;28;20098;-54
2021/12/17 10:15:46;;;;;;;31.70;20.98;;;8.60;99.90;;;;;;5011044;28;20383;-56
2021/12/17 10:18:13;;;;;;;26.33;16.23;;;8.60;99.90;;;;;;5011153;28;20030;-57
2021/12/17 10:20:56;;;;;;;23.48;16.27;;;8.50;99.90;;;;;;5013444;28;20054;-53
2021/12/17 10:23:25;;;;;;;22.02;16.02;;;8.50;99.90;;;;;;5003176;28;20038;-56
2021/12/17 10:25:51;;;;;;;19.73;13.75;;;8.50;99.90;;;;;;5005249;28;20058;-57
2021/12/17 10:28:17;;;;;;;19.65;14.65;;;8.40;99.90;;;;;;4990513;28;20089;-56
2021/12/17 10:30:46;;;;;;;25.63;16.75;;;8.40;99.90;;;;;;4995269;28;20431;-56
2021/12/17 10:33:18;;;;;;;21.63;16.42;;;8.40;99.90;;;;;;5003906;28;20036;-59
2021/12/17 10:35:46;;;;;;;24.23;16.13;;;8.30;99.90;;;;;;4999349;28;20034;-58
2021/12/17 10:38:16;;;;;;;35.75;22.92;;;8.30;99.90;;;;;;5002559;28;20025;-58
2021/12/17 10:41:09;;;;;;;39.15;23.85;;;8.20;99.90;;;;;;5006903;28;20408;-59
2021/12/17 10:43:39;;;;;;;39.15;21.92;;;8.20;99.90;;;;;;4993464;28;20089;-55
2021/12/17 10:46:11;;;;;;;39.75;24.90;;;8.20;99.90;;;;;;5008389;28;20105;-53
2021/12/17 10:51:45;;;;;;;46.17;27.08;;;8.40;99.90;;;;;;5014362;28;20026;-60
2021/12/17 10:54:16;;;;;;;42.55;24.65;;;8.40;99.90;;;;;;5013963;28;20022;-56
2021/12/17 10:56:50;;;;;;;42.90;26.65;;;8.40;99.90;;;;;;5012178;28;20025;-55
2021/12/17 10:59:16;;;;;;;41.88;24.77;;;8.40;99.90;;;;;;5009356;28;20022;-57
2021/12/17 11:01:49;;;;;;;37.35;23.52;;;8.40;99.90;;;;;;5006286;28;20030;-55
2021/12/17 11:04:23;;;;;;;36.33;22.67;;;8.50;99.90;;;;;;4996924;28;20503;-59
2021/12/17 11:06:55;;;;;;;34.33;20.80;;;8.50;99.90;;;;;;4990402;28;20052;-60
2021/12/17 11:09:36;;;;;;;32.05;20.25;;;8.60;99.90;;;;;;5006027;28;20025;-55
2021/12/17 11:12:22;;;;;;;26.67;17.90;;;8.50;99.90;;;;;;5013089;28;20022;-57
2021/12/17 12:06:59;;;;;;;34.60;20.15;;;7.30;99.90;;;;;;5088287;27;20452;-56
2021/12/17 12:10:02;;;;;;;36.78;20.85;;;7.50;99.90;;;;;;5073032;28;20031;-59
2021/12/17 12:12:51;;;;;;;30.77;17.88;;;7.60;99.90;;;;;;5074420;28;20195;-58
2021/12/17 12:15:20;;;;;;;23.77;15.25;;;7.90;99.90;;;;;;5072357;28;20474;-60
2021/12/17 12:17:58;;;;;;;24.23;14.57;;;8.00;99.90;;;;;;5074418;28;20094;-54
2021/12/17 12:20:51;;;;;;;20.63;13.98;;;8.20;99.90;;;;;;5084243;28;20338;-58
2021/12/17 12:23:32;;;;;;;22.75;12.73;;;8.30;99.90;;;;;;5080725;28;20023;-51
2021/12/17 12:26:04;;;;;;;18.70;11.38;;;8.50;99.90;;;;;;5088977;28;20500;-57
2021/12/17 12:28:50;;;;;;;14.38;9.75;;;8.70;99.90;;;;;;5088300;28;20028;-53
2021/12/17 12:31:33;;;;;;;11.38;8.63;;;8.80;99.90;;;;;;5085851;28;20116;-52
2021/12/17 12:34:02;;;;;;;12.23;8.30;;;9.00;99.90;;;;;;5065090;28;20095;-59
2021/12/17 12:37:04;;;;;;;12.05;7.60;;;9.10;99.90;;;;;;5067195;28;20031;-57
2021/12/17 12:39:39;;;;;;;11.00;7.22;;;9.00;99.90;;;;;;5067826;28;20032;-55
2021/12/17 12:42:24;;;;;;;7.72;5.55;;;9.10;99.90;;;;;;5067860;28;20016;-57
2021/12/17 12:44:50;;;;;;;8.68;5.90;;;9.10;99.90;;;;;;5067895;28;20052;-59
2021/12/17 12:47:57;;;;;;;9.93;6.30;;;9.00;99.90;;;;;;5069720;28;20496;-54
2021/12/17 12:50:27;;;;;;;7.35;5.68;;;9.00;99.90;;;;;;5075400;28;20410;-54
2021/12/17 12:53:08;;;;;;;8.65;5.18;;;9.10;99.90;;;;;;5067465;28;20169;-53
2021/12/17 12:55:43;;;;;;;8.38;5.00;;;9.10;99.90;;;;;;5067294;28;20385;-55
2021/12/17 12:58:27;;;;;;;6.20;4.70;;;9.20;99.90;;;;;;5067420;28;20426;-56
2021/12/17 13:00:58;;;;;;;8.68;4.70;;;9.10;99.90;;;;;;5066968;28;20470;-57
2021/12/17 13:03:24;;;;;;;6.70;4.93;;;9.10;99.90;;;;;;5068313;28;20418;-58
2021/12/17 13:05:50;;;;;;;9.20;5.75;;;9.10;99.90;;;;;;5067972;28;20049;-57
2021/12/17 13:08:21;;;;;;;7.30;4.78;;;9.10;99.90;;;;;;5068159;28;20048;-53
2021/12/17 13:10:54;;;;;;;6.00;4.47;;;9.00;99.90;;;;;;5066235;28;20055;-58
2021/12/17 13:26:34;;;;;;;7.88;5.43;;;8.70;99.90;;;;;;5071046;28;20040;-55
2021/12/17 13:29:06;;;;;;;8.45;5.20;;;8.70;99.90;;;;;;5071567;28;20055;-55
2021/12/17 13:31:47;;;;;;;9.05;5.70;;;8.70;99.90;;;;;;5073346;28;20044;-55
2021/12/17 13:34:17;;;;;;;9.18;5.95;;;8.60;99.90;;;;;;5073630;28;20020;-57
2021/12/17 13:37:03;;;;;;;8.80;5.22;;;8.50;99.90;;;;;;5074924;28;20031;-53
2021/12/17 13:39:47;;;;;;;11.23;6.20;;;8.50;99.90;;;;;;5075317;28;20036;-54
2021/12/17 13:42:17;;;;;;;8.45;5.13;;;8.50;99.90;;;;;;5073032;28;20046;-52
2021/12/17 13:44:42;;;;;;;9.45;5.72;;;8.50;99.90;;;;;;5074184;28;20029;-56
